Time;durP1;ratioP1;P1;durP2;ratioP2;P2;SDS_P1;SDS_P2;PMS_P1;PMS_P2;Temp;Humidity;BMP_temperature;BMP_pressure;BME280_temperature;BME280_humidity;BME280_pressure;Samples;Min_cycle;Max_cycle;Signal;HPM_P1;HPM_P2
2023/08/20 00:00:18;;;;;;;3.03;2.33;;;27.60;56.70;;;;;;5079261;28;20119;-64
2023/08/20 00:02:46;;;;;;;3.40;2.58;;;27.60;56.70;;;;;;5077753;28;20052;-65
2023/08/20 00:05:13;;;;;;;4.18;2.80;;;27.60;56.70;;;;;;5079361;28;20020;-63
2023/08/20 00:07:39;;;;;;;3.40;2.40;;;27.60;56.70;;;;;;5075638;28;20025;-63
2023/08/20 00:10:05;;;;;;;2.88;2.40;;;27.60;56.70;;;;;;5076878;28;20033;-64
2023/08/20 00:12:31;;;;;;;3.45;2.80;;;27.60;56.70;;;;;;5078333;28;20381;-63
2023/08/20 00:15:05;;;;;;;2.90;2.45;;;27.60;56.70;;;;;;5079558;28;20081;-62
2023/08/20 00:17:33;;;;;;;3.05;2.40;;;27.60;56.70;;;;;;5080079;28;20502;-63
2023/08/20 00:19:58;;;;;;;2.75;2.33;;;27.60;56.70;;;;;;5079324;28;20039;-63
2023/08/20 00:22:25;;;;;;;3.00;2.53;;;27.60;56.70;;;;;;5077316;28;20017;-62
2023/08/20 00:24:52;;;;;;;3.00;2.30;;;27.60;56.70;;;;;;5078310;28;20032;-64
2023/08/20 00:27:18;;;;;;;2.80;2.30;;;27.60;56.70;;;;;;5080557;28;20020;-63
2023/08/20 00:29:44;;;;;;;3.08;2.38;;;27.60;56.60;;;;;;5077998;28;20372;-63
2023/08/20 00:32:09;;;;;;;2.60;2.20;;;27.60;56.60;;;;;;5078691;28;20434;-65
2023/08/20 00:34:35;;;;;;;3.30;2.65;;;27.60;56.70;;;;;;5077301;28;20131;-63
2023/08/20 00:37:02;;;;;;;3.30;2.60;;;27.60;56.60;;;;;;5076886;28;20421;-66
2023/08/20 00:39:28;;;;;;;3.35;2.30;;;27.60;56.60;;;;;;5076774;28;20115;-64
2023/08/20 00:41:54;;;;;;;3.13;2.20;;;27.60;56.60;;;;;;5078799;28;20024;-64
2023/08/20 00:44:19;;;;;;;2.80;2.28;;;27.60;56.60;;;;;;5076449;28;20226;-64
2023/08/20 00:46:45;;;;;;;3.03;2.20;;;27.60;56.60;;;;;;5076002;28;20028;-65
2023/08/20 00:49:11;;;;;;;3.28;2.58;;;27.60;56.60;;;;;;5077602;28;20129;-63
2023/08/20 00:51:37;;;;;;;3.40;2.58;;;27.60;56.60;;;;;;5075014;28;20033;-64
2023/08/20 00:54:04;;;;;;;3.50;2.50;;;27.60;56.60;;;;;;5079305;28;20483;-62
2023/08/20 00:56:30;;;;;;;3.05;2.40;;;27.60;56.60;;;;;;5075522;28;20036;-63
2023/08/20 00:58:55;;;;;;;2.63;2.10;;;27.60;56.60;;;;;;5081220;28;20028;-63
2023/08/20 01:01:24;;;;;;;3.13;2.38;;;27.60;56.60;;;;;;5082644;28;20472;-63
2023/08/20 01:03:50;;;;;;;3.15;2.25;;;27.60;56.60;;;;;;5082075;28;20025;-63
2023/08/20 01:06:30;;;;;;;4.53;2.50;;;27.60;56.60;;;;;;5080360;28;20032;-66
2023/08/20 01:09:14;;;;;;;2.90;2.35;;;27.60;56.60;;;;;;5080190;28;20040;-64
2023/08/20 01:11:49;;;;;;;3.10;2.38;;;27.60;56.60;;;;;;5081233;28;20032;-63
2023/08/20 01:14:16;;;;;;;3.50;2.40;;;27.60;56.60;;;;;;5079896;28;20134;-63
2023/08/20 01:16:42;;;;;;;3.47;2.53;;;27.60;56.60;;;;;;5081805;28;20468;-68
2023/08/20 01:19:17;;;;;;;2.97;2.47;;;27.60;56.60;;;;;;5081692;28;20029;-68
2023/08/20 01:22:02;;;;;;;2.70;2.30;;;27.60;56.60;;;;;;5082434;28;20464;-69
2023/08/20 01:24:33;;;;;;;3.30;2.47;;;27.60;56.60;;;;;;5080932;28;20017;-68
2023/08/20 01:27:33;;;;;;;3.60;2.40;;;27.60;56.60;;;;;;5066458;28;20032;-68
2023/08/20 01:29:59;;;;;;;2.90;2.13;;;27.60;56.60;;;;;;5081530;28;20032;-69
2023/08/20 01:32:25;;;;;;;2.75;2.33;;;27.60;56.60;;;;;;5081346;28;20024;-68
2023/08/20 01:34:52;;;;;;;3.00;2.33;;;27.60;56.60;;;;;;5080732;28;20033;-69
2023/08/20 01:37:18;;;;;;;2.70;2.20;;;27.60;56.60;;;;;;5078984;28;20431;-68
2023/08/20 01:39:44;;;;;;;3.10;2.30;;;27.60;57.10;;;;;;5077862;28;20025;-68
2023/08/20 01:42:09;;;;;;;2.88;2.30;;;27.60;56.60;;;;;;5080625;28;20032;-70
2023/08/20 01:44:35;;;;;;;2.88;2.28;;;27.60;56.60;;;;;;5080167;28;20035;-69
2023/08/20 01:47:00;;;;;;;2.97;2.53;;;27.60;56.60;;;;;;5079143;28;20028;-68
2023/08/20 01:49:26;;;;;;;3.10;2.15;;;27.60;56.60;;;;;;5080628;28;20467;-69
2023/08/20 01:51:52;;;;;;;3.10;2.42;;;27.60;56.60;;;;;;5077872;28;20028;-69
2023/08/20 01:54:17;;;;;;;2.70;2.30;;;27.60;56.60;;;;;;5079151;28;20472;-69
2023/08/20 01:56:43;;;;;;;2.80;2.20;;;27.60;56.60;;;;;;5081235;28;20028;-68
2023/08/20 01:59:08;;;;;;;3.08;2.25;;;27.60;56.60;;;;;;5078594;28;20909;-68
2023/08/20 02:01:34;;;;;;;3.40;2.40;;;27.60;56.60;;;;;;5079545;28;20111;-68
2023/08/20 02:04:00;;;;;;;3.03;2.20;;;27.60;56.60;;;;;;5079749;28;20025;-68
2023/08/20 02:06:26;;;;;;;3.15;2.17;;;27.60;56.60;;;;;;5080634;28;20399;-64
2023/08/20 02:08:51;;;;;;;2.88;2.20;;;27.60;56.60;;;;;;5067944;28;20028;-64
2023/08/20 02:11:17;;;;;;;2.72;2.20;;;27.60;56.60;;;;;;5078145;28;20174;-66
2023/08/20 02:13:43;;;;;;;2.83;2.38;;;27.60;56.60;;;;;;5081636;28;20120;-64
2023/08/20 02:16:08;;;;;;;2.70;2.25;;;27.60;56.60;;;;;;5081146;28;20483;-64
2023/08/20 02:18:34;;;;;;;2.72;2.05;;;27.60;56.60;;;;;;5079783;28;20020;-65
2023/08/20 02:21:00;;;;;;;2.95;2.30;;;27.60;56.60;;;;;;5076758;28;20025;-65
2023/08/20 02:23:25;;;;;;;2.70;2.13;;;27.60;56.60;;;;;;5079403;28;20043;-64
2023/08/20 02:25:51;;;;;;;2.85;2.20;;;27.60;56.60;;;;;;5080464;28;20029;-67
2023/08/20 02:28:17;;;;;;;3.20;2.22;;;27.60;56.60;;;;;;5077957;28;20024;-68
2023/08/20 02:30:44;;;;;;;2.88;2.20;;;27.60;56.60;;;;;;5079215;28;20033;-68
2023/08/20 02:33:10;;;;;;;2.65;2.15;;;27.60;56.60;;;;;;5078872;28;20088;-68
2023/08/20 02:35:37;;;;;;;3.00;2.38;;;27.60;56.60;;;;;;5078751;28;20098;-68
2023/08/20 02:38:03;;;;;;;2.72;2.30;;;27.60;56.60;;;;;;5078004;28;20024;-68
2023/08/20 02:40:28;;;;;;;2.95;2.30;;;27.60;56.60;;;;;;5079696;28;20023;-70
2023/08/20 02:42:54;;;;;;;3.55;2.55;;;27.50;56.50;;;;;;5076555;28;20048;-68
2023/08/20 02:45:19;;;;;;;2.38;1.80;;;27.50;56.50;;;;;;5078441;28;20024;-69
2023/08/20 02:47:45;;;;;;;2.50;2.13;;;27.50;56.60;;;;;;5079962;28;20211;-68
2023/08/20 02:50:11;;;;;;;2.90;2.15;;;27.50;56.50;;;;;;5078736;28;20039;-69
2023/08/20 02:52:37;;;;;;;2.90;2.17;;;27.60;56.60;;;;;;5077807;28;20028;-68
2023/08/20 02:55:04;;;;;;;3.50;2.33;;;27.60;56.60;;;;;;5077561;28;20063;-68
2023/08/20 02:57:30;;;;;;;2.40;2.08;;;27.50;56.50;;;;;;5062083;28;20032;-68
2023/08/20 02:59:56;;;;;;;3.00;2.10;;;27.50;57.00;;;;;;5078954;28;21034;-68
2023/08/20 03:02:22;;;;;;;3.40;2.08;;;27.50;56.50;;;;;;5078906;28;20020;-68
2023/08/20 03:04:48;;;;;;;3.05;2.38;;;27.50;56.50;;;;;;5078890;28;20025;-68
2023/08/20 03:07:13;;;;;;;2.92;2.33;;;27.50;56.50;;;;;;5076144;28;20089;-68
2023/08/20 03:09:39;;;;;;;3.10;1.90;;;27.50;56.50;;;;;;5077589;28;20088;-69
2023/08/20 03:12:05;;;;;;;2.70;2.10;;;27.50;56.50;;;;;;5081437;28;20024;-68
2023/08/20 03:14:30;;;;;;;2.70;2.03;;;27.50;56.50;;;;;;5078132;28;20484;-69
2023/08/20 03:16:56;;;;;;;2.55;1.90;;;27.50;56.50;;;;;;5079960;28;20099;-64
2023/08/20 03:19:22;;;;;;;2.75;2.22;;;27.50;56.50;;;;;;5080407;28;20032;-64
2023/08/20 03:21:47;;;;;;;2.30;2.00;;;27.50;56.50;;;;;;5078872;28;20399;-65
2023/08/20 03:24:13;;;;;;;3.05;2.10;;;27.50;56.50;;;;;;5058299;28;20031;-65
2023/08/20 03:26:39;;;;;;;2.88;2.20;;;27.50;56.50;;;;;;5079191;28;20024;-65
2023/08/20 03:29:04;;;;;;;2.63;2.10;;;27.50;56.50;;;;;;5080180;28;20493;-64
2023/08/20 03:31:30;;;;;;;2.33;1.92;;;27.50;56.50;;;;;;5077101;28;20073;-63
2023/08/20 03:33:55;;;;;;;2.75;2.20;;;27.50;56.50;;;;;;5080217;28;20032;-65
2023/08/20 03:36:21;;;;;;;2.97;2.10;;;27.50;56.50;;;;;;5079467;28;20032;-63
2023/08/20 03:38:47;;;;;;;2.22;1.92;;;27.50;56.50;;;;;;5076989;28;20028;-65
2023/08/20 03:41:13;;;;;;;2.45;2.05;;;27.50;56.40;;;;;;5078514;28;20035;-63
2023/08/20 03:43:38;;;;;;;2.40;2.10;;;27.50;56.40;;;;;;5077857;28;20020;-63
2023/08/20 03:46:04;;;;;;;2.22;1.90;;;27.50;56.50;;;;;;5078451;28;20025;-64
2023/08/20 03:48:29;;;;;;;2.65;2.00;;;27.50;56.40;;;;;;5080377;28;20544;-64
2023/08/20 03:50:56;;;;;;;2.50;2.05;;;27.50;56.50;;;;;;5079142;28;20039;-65
2023/08/20 03:53:21;;;;;;;2.65;2.10;;;27.50;56.40;;;;;;5068107;28;20548;-63
2023/08/20 03:55:51;;;;;;;3.70;2.30;;;27.50;56.30;;;;;;5078340;28;20032;-63
2023/08/20 03:58:17;;;;;;;3.65;3.10;;;27.50;56.10;;;;;;5078984;28;20020;-63
2023/08/20 04:00:44;;;;;;;5.13;2.72;;;27.50;55.80;;;;;;5078409;28;20044;-63
2023/08/20 04:03:09;;;;;;;4.20;2.60;;;27.50;55.70;;;;;;5076508;28;20020;-62
2023/08/20 04:05:38;;;;;;;3.97;2.75;;;27.40;55.70;;;;;;5078825;28;20082;-64
2023/08/20 04:08:04;;;;;;;;;;;27.40;55.60;;;;;;5075786;28;20464;-63
2023/08/20 04:10:31;;;;;;;4.30;2.70;;;27.40;55.50;;;;;;5078836;28;19909;-63
2023/08/20 04:12:56;;;;;;;6.47;2.90;;;27.40;55.30;;;;;;5078983;28;20028;-65
2023/08/20 04:15:22;;;;;;;5.28;2.90;;;27.40;55.30;;;;;;5078131;28;20100;-62
2023/08/20 04:17:48;;;;;;;4.70;3.28;;;27.40;55.10;;;;;;5077401;28;20024;-63
2023/08/20 04:20:14;;;;;;;3.92;2.80;;;27.30;55.00;;;;;;5076845;28;20050;-63
2023/08/20 04:22:40;;;;;;;4.00;3.00;;;27.30;55.00;;;;;;5078852;28;20054;-63
2023/08/20 04:25:06;;;;;;;4.20;2.65;;;27.40;55.10;;;;;;5077230;28;20028;-63
2023/08/20 04:27:32;;;;;;;4.40;3.03;;;27.30;55.00;;;;;;5076435;28;20054;-69
2023/08/20 04:29:57;;;;;;;5.55;3.08;;;27.30;55.00;;;;;;5078384;28;20039;-69
2023/08/20 04:32:23;;;;;;;5.10;3.05;;;27.30;54.90;;;;;;5078404;28;20028;-72
2023/08/20 04:34:51;;;;;;;6.20;3.63;;;27.30;54.90;;;;;;5066315;28;20028;-69
2023/08/20 04:37:18;;;;;;;4.15;3.25;;;27.30;54.90;;;;;;5080045;28;20032;-69
2023/08/20 04:39:44;;;;;;;6.10;3.10;;;27.30;54.90;;;;;;5081110;28;20032;-69
2023/08/20 04:42:10;;;;;;;4.20;2.90;;;27.20;54.90;;;;;;5081349;28;20314;-70
2023/08/20 04:44:35;;;;;;;8.23;3.45;;;27.20;54.90;;;;;;5081856;28;20052;-70
2023/08/20 04:47:01;;;;;;;4.30;3.03;;;27.20;54.90;;;;;;5083510;28;20451;-63
2023/08/20 04:49:28;;;;;;;8.35;3.08;;;27.20;54.90;;;;;;5061853;28;20456;-64
2023/08/20 04:51:54;;;;;;;4.30;3.20;;;27.10;54.90;;;;;;5080729;28;20115;-64
2023/08/20 04:54:20;;;;;;;4.40;3.20;;;27.10;55.00;;;;;;5081148;28;20064;-64
2023/08/20 04:56:45;;;;;;;4.45;3.08;;;27.10;55.00;;;;;;5067561;28;20024;-63
2023/08/20 04:59:11;;;;;;;4.65;2.90;;;27.10;55.10;;;;;;5081199;28;20060;-64
2023/08/20 05:01:39;;;;;;;4.32;3.20;;;27.10;55.10;;;;;;5082906;28;20028;-63
2023/08/20 05:04:05;;;;;;;6.13;3.00;;;27.10;55.20;;;;;;5081868;28;20074;-63
2023/08/20 05:06:30;;;;;;;4.13;3.00;;;27.10;55.20;;;;;;5082657;28;20035;-62
2023/08/20 05:08:56;;;;;;;4.95;3.20;;;27.10;55.30;;;;;;5080460;28;20516;-63
2023/08/20 05:11:21;;;;;;;3.85;2.92;;;27.00;55.30;;;;;;5078929;28;20031;-63
2023/08/20 05:13:49;;;;;;;3.72;2.90;;;27.00;55.40;;;;;;5079966;28;20542;-63
2023/08/20 05:16:14;;;;;;;4.93;3.40;;;27.00;55.50;;;;;;5080102;28;20490;-63
2023/08/20 05:18:40;;;;;;;5.10;2.97;;;27.00;55.60;;;;;;5083395;28;20025;-63
2023/08/20 05:21:06;;;;;;;5.30;3.10;;;26.90;55.60;;;;;;5079869;28;20066;-64
2023/08/20 05:23:31;;;;;;;5.60;2.92;;;27.00;55.70;;;;;;5078502;28;20387;-62
2023/08/20 05:25:57;;;;;;;7.15;3.55;;;27.00;55.70;;;;;;5079996;28;20029;-64
2023/08/20 05:28:23;;;;;;;3.85;3.05;;;26.90;55.70;;;;;;5080205;28;20039;-64
2023/08/20 05:30:56;;;;;;;5.93;3.38;;;26.90;55.70;;;;;;5080680;28;20035;-62
2023/08/20 05:33:22;;;;;;;4.57;3.33;;;26.90;55.80;;;;;;5080491;28;20135;-63
2023/08/20 05:35:48;;;;;;;4.78;3.50;;;26.90;55.90;;;;;;5079301;28;20069;-67
2023/08/20 05:38:14;;;;;;;5.78;3.50;;;26.90;55.90;;;;;;5079024;28;20020;-67
2023/08/20 05:40:39;;;;;;;6.25;3.10;;;26.90;56.00;;;;;;5080355;28;20024;-67
2023/08/20 05:43:05;;;;;;;4.50;3.17;;;26.90;56.10;;;;;;5079992;28;20073;-68
2023/08/20 05:45:30;;;;;;;5.85;3.38;;;26.80;56.10;;;;;;5080331;28;20174;-69
2023/08/20 05:47:56;;;;;;;4.90;3.35;;;26.80;56.10;;;;;;5079960;28;20028;-69
2023/08/20 05:50:22;;;;;;;6.15;3.38;;;26.80;56.20;;;;;;5080292;28;20028;-68
2023/08/20 05:52:48;;;;;;;4.88;3.40;;;26.80;56.20;;;;;;5079693;28;20496;-68
2023/08/20 05:55:14;;;;;;;5.07;3.22;;;26.80;56.20;;;;;;5080029;28;20537;-62
2023/08/20 05:57:42;;;;;;;4.53;3.10;;;26.80;56.20;;;;;;5078465;28;20028;-61
2023/08/20 06:00:08;;;;;;;4.20;3.17;;;26.80;56.20;;;;;;5078506;28;20464;-62
2023/08/20 06:02:34;;;;;;;4.45;3.17;;;26.80;56.20;;;;;;5081897;28;20111;-62
2023/08/20 06:04:59;;;;;;;4.45;3.20;;;26.80;56.20;;;;;;5079742;28;20116;-61
2023/08/20 06:07:25;;;;;;;4.60;3.03;;;26.80;56.20;;;;;;5078331;28;20376;-60
2023/08/20 06:09:51;;;;;;;5.78;3.20;;;26.80;56.20;;;;;;5079658;28;20507;-62
2023/08/20 06:12:17;;;;;;;4.80;3.30;;;26.80;56.20;;;;;;5078781;28;20067;-61
2023/08/20 06:14:43;;;;;;;4.35;3.28;;;26.80;56.10;;;;;;5078476;28;20159;-61
2023/08/20 06:17:08;;;;;;;5.45;3.22;;;26.80;56.20;;;;;;5078120;28;20171;-61
2023/08/20 06:19:34;;;;;;;4.20;2.90;;;26.80;56.10;;;;;;5078782;28;20024;-62
2023/08/20 06:21:59;;;;;;;4.15;3.20;;;26.80;56.20;;;;;;5079952;28;20032;-62
2023/08/20 06:24:26;;;;;;;5.05;2.83;;;26.80;56.10;;;;;;5079458;28;20111;-62
2023/08/20 06:26:52;;;;;;;4.53;2.83;;;26.80;56.10;;;;;;5077645;28;20103;-62
2023/08/20 06:29:17;;;;;;;4.82;3.22;;;26.80;56.10;;;;;;5080411;28;20597;-64
2023/08/20 06:31:43;;;;;;;4.10;2.90;;;26.80;56.10;;;;;;5079261;28;20047;-61
2023/08/20 06:34:12;;;;;;;3.85;2.70;;;26.80;56.10;;;;;;5078383;28;20371;-62
2023/08/20 06:36:37;;;;;;;3.90;3.05;;;26.80;56.10;;;;;;5079411;28;20124;-64
2023/08/20 06:39:03;;;;;;;3.30;2.80;;;26.80;56.10;;;;;;5078145;28;20140;-62
2023/08/20 06:41:29;;;;;;;4.88;3.15;;;26.80;56.10;;;;;;5060801;28;20020;-62
2023/08/20 06:43:54;;;;;;;3.67;2.97;;;26.80;56.10;;;;;;5078848;28;20036;-63
2023/08/20 06:46:20;;;;;;;3.40;2.97;;;26.80;56.10;;;;;;5079203;28;20500;-61
2023/08/20 06:48:45;;;;;;;3.78;2.92;;;26.80;56.10;;;;;;5077105;28;20032;-63
2023/08/20 06:51:13;;;;;;;3.75;3.00;;;26.80;56.10;;;;;;5077669;28;20517;-61
2023/08/20 06:53:40;;;;;;;4.28;3.00;;;26.80;56.60;;;;;;5078440;28;20024;-63
2023/08/20 06:56:09;;;;;;;4.22;2.70;;;26.80;56.10;;;;;;5067652;28;20052;-63
2023/08/20 06:58:35;;;;;;;3.92;2.90;;;26.80;56.60;;;;;;5077553;28;20364;-61
2023/08/20 07:01:07;;;;;;;4.32;3.05;;;26.80;56.10;;;;;;5078812;28;20025;-63
2023/08/20 07:03:39;;;;;;;4.78;3.20;;;26.80;56.10;;;;;;5078441;28;20074;-62
2023/08/20 07:06:05;;;;;;;3.63;2.63;;;26.80;56.20;;;;;;5066383;28;20032;-62
2023/08/20 07:08:31;;;;;;;4.97;3.00;;;26.80;56.10;;;;;;5080181;28;20395;-64
2023/08/20 07:10:56;;;;;;;3.60;2.90;;;26.80;56.10;;;;;;5077269;28;20031;-64
2023/08/20 07:13:23;;;;;;;3.72;2.83;;;26.80;56.20;;;;;;5077234;28;20054;-62
2023/08/20 07:15:49;;;;;;;3.42;2.63;;;26.80;56.10;;;;;;5075276;28;20040;-62
2023/08/20 07:18:15;;;;;;;3.60;2.67;;;26.80;56.10;;;;;;5078149;28;20093;-64
2023/08/20 07:20:44;;;;;;;3.78;2.83;;;26.80;56.10;;;;;;5076011;28;20020;-62
2023/08/20 07:23:10;;;;;;;4.30;3.00;;;26.80;56.20;;;;;;5078606;28;20368;-62
2023/08/20 07:25:41;;;;;;;3.53;2.70;;;26.80;56.10;;;;;;5077118;28;20040;-64
2023/08/20 07:28:08;;;;;;;3.63;2.70;;;26.80;56.10;;;;;;5079187;28;20049;-65
2023/08/20 07:30:34;;;;;;;3.05;2.53;;;26.80;56.10;;;;;;5078338;28;20467;-61
2023/08/20 07:33:00;;;;;;;5.45;3.22;;;26.80;56.10;;;;;;5077258;28;20543;-62
2023/08/20 07:35:26;;;;;;;3.40;2.50;;;26.80;56.20;;;;;;5076105;28;20310;-62
2023/08/20 07:37:51;;;;;;;3.60;2.78;;;26.80;56.10;;;;;;5077614;28;20100;-63
2023/08/20 07:40:17;;;;;;;3.15;2.60;;;26.80;56.20;;;;;;5078367;28;20036;-62
2023/08/20 07:42:43;;;;;;;3.42;2.63;;;26.80;56.20;;;;;;5076695;28;20056;-63
2023/08/20 07:45:09;;;;;;;3.42;2.65;;;26.80;56.20;;;;;;5076845;28;20033;-63
2023/08/20 07:47:38;;;;;;;3.40;2.47;;;26.80;56.20;;;;;;5077853;28;20946;-62
2023/08/20 07:50:05;;;;;;;;;;;26.80;56.20;;;;;;5075675;28;20039;-63
2023/08/20 07:52:31;;;;;;;3.47;2.53;;;26.80;56.20;;;;;;5059002;28;19980;-63
2023/08/20 07:54:56;;;;;;;3.38;2.45;;;26.80;56.20;;;;;;5076135;28;20067;-64
2023/08/20 07:57:23;;;;;;;2.90;2.40;;;26.80;56.20;;;;;;5077405;28;20056;-69
2023/08/20 07:59:49;;;;;;;3.42;2.50;;;26.80;56.10;;;;;;5076362;28;20074;-70
2023/08/20 08:02:15;;;;;;;3.30;2.65;;;26.80;56.20;;;;;;5075218;28;20048;-69
2023/08/20 08:04:41;;;;;;;3.25;2.75;;;26.80;56.20;;;;;;5078948;28;20060;-69
2023/08/20 08:07:07;;;;;;;3.50;2.60;;;26.80;56.20;;;;;;5078925;28;20551;-69
2023/08/20 08:09:32;;;;;;;4.30;2.90;;;26.80;56.20;;;;;;5082232;28;20103;-69
2023/08/20 08:11:59;;;;;;;3.47;2.90;;;26.80;56.20;;;;;;5080932;28;20055;-70
2023/08/20 08:14:25;;;;;;;3.53;2.60;;;26.80;56.20;;;;;;5081336;28;20043;-68
2023/08/20 08:16:51;;;;;;;5.38;2.50;;;26.80;56.20;;;;;;5083199;28;20412;-70
2023/08/20 08:19:18;;;;;;;3.78;2.53;;;26.80;56.20;;;;;;5080107;28;20020;-69
2023/08/20 08:21:44;;;;;;;4.72;2.50;;;26.80;56.20;;;;;;5081987;28;20438;-69
2023/08/20 08:24:10;;;;;;;4.40;2.80;;;26.80;56.20;;;;;;5083883;28;20054;-69
2023/08/20 08:26:36;;;;;;;3.50;2.60;;;26.80;56.20;;;;;;5083223;28;20115;-69
2023/08/20 08:29:06;;;;;;;4.10;2.50;;;26.80;56.20;;;;;;5081959;28;20425;-69
2023/08/20 08:31:33;;;;;;;2.83;2.40;;;26.80;56.20;;;;;;5083152;28;20419;-69
2023/08/20 08:33:59;;;;;;;3.80;2.67;;;26.80;56.20;;;;;;5082048;28;20349;-70
2023/08/20 08:36:24;;;;;;;3.13;2.45;;;26.80;56.20;;;;;;5081742;28;20024;-70
2023/08/20 08:38:51;;;;;;;2.80;2.42;;;26.90;56.20;;;;;;5081554;28;20021;-69
2023/08/20 08:41:17;;;;;;;3.28;2.45;;;26.80;56.10;;;;;;5079555;28;20032;-70
2023/08/20 08:43:43;;;;;;;2.92;2.40;;;26.80;56.60;;;;;;5065097;28;20446;-69
2023/08/20 08:46:13;;;;;;;2.80;2.20;;;26.90;56.20;;;;;;5078389;28;20032;-69
2023/08/20 08:48:41;;;;;;;2.63;2.30;;;26.80;56.20;;;;;;5081448;28;20048;-69
2023/08/20 08:51:07;;;;;;;3.20;2.40;;;26.80;56.20;;;;;;5080746;28;20081;-69
2023/08/20 08:53:34;;;;;;;2.88;2.33;;;26.80;56.10;;;;;;5080901;28;20032;-69
2023/08/20 08:56:01;;;;;;;3.85;2.40;;;26.80;56.10;;;;;;5079765;28;20036;-69
2023/08/20 08:58:26;;;;;;;2.88;2.40;;;26.80;56.10;;;;;;5078971;28;20024;-69
2023/08/20 09:00:53;;;;;;;2.88;2.22;;;26.90;56.20;;;;;;5081966;28;20074;-69
2023/08/20 09:03:18;;;;;;;2.58;2.22;;;26.90;56.20;;;;;;5079586;28;20537;-69
2023/08/20 09:05:49;;;;;;;2.85;2.40;;;26.90;56.70;;;;;;5080105;28;20032;-62
2023/08/20 09:08:22;;;;;;;2.83;2.15;;;26.80;56.20;;;;;;5081763;28;20052;-62
2023/08/20 09:10:52;;;;;;;2.72;2.28;;;26.90;56.20;;;;;;5080383;28;20089;-65
2023/08/20 09:13:24;;;;;;;3.63;2.30;;;26.90;56.20;;;;;;5082008;28;20028;-63
2023/08/20 09:15:53;;;;;;;3.08;2.20;;;26.90;56.20;;;;;;5081335;28;20032;-63
2023/08/20 09:18:19;;;;;;;2.80;2.20;;;26.90;56.20;;;;;;5079260;28;20412;-64
2023/08/20 09:20:47;;;;;;;2.45;2.08;;;26.90;56.20;;;;;;5079794;28;20029;-62
2023/08/20 09:23:13;;;;;;;2.55;2.13;;;26.90;56.20;;;;;;5064183;28;20329;-63
2023/08/20 09:25:39;;;;;;;2.80;2.33;;;26.90;56.20;;;;;;5080308;28;20487;-70
2023/08/20 09:28:05;;;;;;;3.03;2.22;;;26.90;56.20;;;;;;5080691;28;20020;-70
2023/08/20 09:30:31;;;;;;;2.80;2.25;;;26.90;56.20;;;;;;5081054;28;20072;-72
2023/08/20 09:33:23;;;;;;;2.63;2.10;;;26.90;56.20;;;;;;5080560;28;20352;-69
2023/08/20 09:35:50;;;;;;;3.17;2.10;;;26.80;56.20;;;;;;5077156;28;20036;-70
2023/08/20 09:38:21;;;;;;;2.75;2.30;;;26.90;56.30;;;;;;5079548;28;20100;-70
2023/08/20 09:40:49;;;;;;;2.80;2.25;;;26.90;56.20;;;;;;5079057;28;20941;-70
2023/08/20 09:43:16;;;;;;;3.05;2.20;;;26.90;56.30;;;;;;5079881;28;20140;-70
2023/08/20 09:45:42;;;;;;;2.50;2.08;;;26.90;56.20;;;;;;5078855;28;20044;-70
2023/08/20 09:48:10;;;;;;;2.47;2.00;;;26.90;56.20;;;;;;5080148;28;20052;-70
2023/08/20 09:50:39;;;;;;;2.85;2.08;;;26.90;56.80;;;;;;5079275;28;20024;-71
2023/08/20 09:53:15;;;;;;;3.00;2.30;;;26.90;56.20;;;;;;5079864;28;20136;-71
2023/08/20 09:55:43;;;;;;;2.70;2.15;;;26.90;56.30;;;;;;5079038;28;20040;-72
2023/08/20 09:58:09;;;;;;;3.03;2.10;;;26.90;56.20;;;;;;5078103;28;20060;-70
2023/08/20 10:00:35;;;;;;;2.92;2.35;;;26.90;56.20;;;;;;5079195;28;20097;-72
2023/08/20 10:03:02;;;;;;;3.67;2.10;;;26.90;56.20;;;;;;5080289;28;20102;-70
2023/08/20 10:05:27;;;;;;;2.72;2.03;;;26.90;56.20;;;;;;5080450;28;20024;-71
2023/08/20 10:07:55;;;;;;;2.33;1.83;;;26.90;56.20;;;;;;5078654;28;20384;-72
2023/08/20 10:10:21;;;;;;;2.78;2.20;;;26.90;56.20;;;;;;5077536;28;20025;-70
2023/08/20 10:12:48;;;;;;;3.00;2.10;;;26.90;56.20;;;;;;5078119;28;20071;-70
2023/08/20 10:15:14;;;;;;;2.88;1.92;;;26.90;56.20;;;;;;5078109;28;20025;-64
2023/08/20 10:17:42;;;;;;;2.72;2.10;;;26.90;56.20;;;;;;5080275;28;20334;-66
2023/08/20 10:20:10;;;;;;;2.40;1.90;;;26.90;56.20;;;;;;5081057;28;20013;-62
2023/08/20 10:22:40;;;;;;;2.83;2.20;;;26.90;56.20;;;;;;5079294;28;20036;-64
2023/08/20 10:25:07;;;;;;;3.50;2.38;;;26.90;56.20;;;;;;5080091;28;20086;-63
2023/08/20 10:27:35;;;;;;;2.92;2.20;;;26.90;56.20;;;;;;5079337;28;20016;-64
2023/08/20 10:30:01;;;;;;;2.95;2.22;;;26.90;56.20;;;;;;5076268;28;20431;-62
2023/08/20 10:32:51;;;;;;;3.22;1.90;;;27.00;56.30;;;;;;5080597;28;20476;-65
2023/08/20 10:35:18;;;;;;;3.75;2.28;;;27.00;56.40;;;;;;5078078;28;20104;-65
2023/08/20 10:38:07;;;;;;;2.40;2.00;;;26.90;56.20;;;;;;5078513;28;20456;-65
2023/08/20 10:40:51;;;;;;;2.40;2.05;;;27.00;56.30;;;;;;5078219;28;20035;-64
2023/08/20 10:43:27;;;;;;;3.33;2.05;;;27.00;56.30;;;;;;5077880;28;20020;-65
2023/08/20 10:46:18;;;;;;;2.10;1.83;;;27.00;56.40;;;;;;5078542;28;20404;-64
2023/08/20 10:48:56;;;;;;;2.40;2.10;;;27.00;56.30;;;;;;5066405;28;20170;-64
2023/08/20 10:51:37;;;;;;;2.95;2.22;;;27.00;56.30;;;;;;5136344;27;20310;-65
2023/08/20 10:54:06;;;;;;;2.58;2.00;;;27.00;56.40;;;;;;5135172;27;20057;-65
2023/08/20 10:56:55;;;;;;;2.75;2.10;;;26.90;56.30;;;;;;5133862;27;20394;-66
2023/08/20 10:59:27;;;;;;;2.33;1.98;;;27.00;56.30;;;;;;5135544;27;20501;-65
2023/08/20 11:01:57;;;;;;;2.80;2.25;;;27.00;56.30;;;;;;5137131;27;20023;-64
2023/08/20 11:04:28;;;;;;;2.88;2.20;;;26.90;56.20;;;;;;5136642;27;20096;-65
2023/08/20 11:06:55;;;;;;;2.38;1.90;;;26.90;56.20;;;;;;5138053;27;20041;-67
2023/08/20 11:09:29;;;;;;;2.42;2.00;;;27.00;56.30;;;;;;5137698;27;20041;-65
2023/08/20 11:11:55;;;;;;;2.58;1.90;;;27.00;56.30;;;;;;5133535;27;20031;-66
2023/08/20 11:14:21;;;;;;;3.28;2.08;;;27.00;56.30;;;;;;5138337;27;20023;-65
2023/08/20 11:16:51;;;;;;;2.40;1.90;;;27.00;56.30;;;;;;5135161;27;20039;-65
2023/08/20 11:19:21;;;;;;;2.60;1.92;;;27.00;56.30;;;;;;5119126;27;20020;-65
2023/08/20 11:21:48;;;;;;;2.50;2.00;;;27.00;56.30;;;;;;5136233;27;20028;-65
2023/08/20 11:24:13;;;;;;;2.03;1.80;;;27.00;56.30;;;;;;5135652;27;20032;-66
2023/08/20 11:26:41;;;;;;;2.30;1.83;;;27.00;56.30;;;;;;5119543;27;20030;-66
2023/08/20 11:29:07;;;;;;;2.30;1.98;;;27.00;56.30;;;;;;5134748;27;20019;-65
2023/08/20 11:31:33;;;;;;;2.50;2.10;;;27.00;56.30;;;;;;5135609;27;20027;-65
2023/08/20 11:33:58;;;;;;;2.53;1.90;;;27.00;56.30;;;;;;5136357;27;20023;-65
2023/08/20 11:36:24;;;;;;;2.40;1.90;;;27.00;56.30;;;;;;5135374;27;20022;-65
2023/08/20 11:38:54;;;;;;;2.45;2.00;;;27.10;56.30;;;;;;5137268;27;20019;-65
2023/08/20 11:41:20;;;;;;;2.40;2.00;;;27.10;56.40;;;;;;5135926;27;20027;-65
2023/08/20 11:43:50;;;;;;;2.53;2.00;;;27.10;56.40;;;;;;5134424;27;20030;-64
2023/08/20 11:46:18;;;;;;;2.25;1.85;;;27.10;56.90;;;;;;5136412;27;20020;-70
2023/08/20 11:49:06;;;;;;;2.28;2.00;;;27.10;56.40;;;;;;5135505;27;20030;-70
2023/08/20 11:51:36;;;;;;;2.30;1.80;;;27.10;56.30;;;;;;5134642;27;20069;-70
2023/08/20 11:54:04;;;;;;;2.80;2.00;;;27.10;56.30;;;;;;5135262;27;20374;-70
2023/08/20 11:56:29;;;;;;;2.67;2.00;;;27.00;56.20;;;;;;5132889;27;20019;-70
2023/08/20 11:58:59;;;;;;;2.65;2.00;;;27.10;56.30;;;;;;5134163;27;20146;-70
2023/08/20 12:01:25;;;;;;;2.15;1.80;;;27.10;56.30;;;;;;5129518;27;20106;-71
2023/08/20 12:03:51;;;;;;;2.50;1.88;;;27.10;56.30;;;;;;5119691;27;20142;-70
2023/08/20 12:06:20;;;;;;;2.85;2.00;;;27.10;56.30;;;;;;5121627;27;20037;-71
2023/08/20 12:08:46;;;;;;;2.30;1.80;;;27.10;56.30;;;;;;5119925;27;20127;-70
2023/08/20 12:11:13;;;;;;;3.08;2.00;;;27.10;56.80;;;;;;5120858;27;20618;-70
2023/08/20 12:13:39;;;;;;;2.72;1.80;;;27.10;56.30;;;;;;5123128;27;20110;-71
2023/08/20 12:16:04;;;;;;;2.50;2.05;;;27.10;56.40;;;;;;5121094;27;20258;-71
2023/08/20 12:18:31;;;;;;;2.50;1.98;;;27.10;56.30;;;;;;5120866;27;20027;-71
2023/08/20 12:20:56;;;;;;;2.20;1.90;;;27.10;56.40;;;;;;5120250;27;20027;-70
2023/08/20 12:23:22;;;;;;;2.65;2.17;;;27.10;56.40;;;;;;5121486;27;20031;-71
2023/08/20 12:25:51;;;;;;;3.13;1.98;;;27.10;56.40;;;;;;5123988;27;20043;-71
2023/08/20 12:28:18;;;;;;;2.50;1.90;;;27.10;56.40;;;;;;5123758;27;20098;-71
2023/08/20 12:30:43;;;;;;;2.72;2.00;;;27.10;56.50;;;;;;5119974;27;20435;-70
2023/08/20 12:33:10;;;;;;;2.35;1.80;;;27.20;56.60;;;;;;5122172;27;20057;-70
2023/08/20 12:35:36;;;;;;;2.10;1.67;;;27.20;56.50;;;;;;5122093;27;20019;-71
2023/08/20 12:38:02;;;;;;;2.15;1.70;;;27.10;56.50;;;;;;5121031;27;20095;-72
2023/08/20 12:40:28;;;;;;;2.63;1.90;;;27.20;56.50;;;;;;5121099;27;20027;-72
2023/08/20 12:42:54;;;;;;;2.25;1.80;;;27.20;56.50;;;;;;5122711;27;20486;-71
2023/08/20 12:45:20;;;;;;;2.50;2.00;;;27.20;56.50;;;;;;5120491;27;20031;-72
2023/08/20 12:47:46;;;;;;;2.00;1.60;;;27.20;56.60;;;;;;5121850;27;20034;-71